Terminal Aerodrome Forecast
Issued by NWS Jacksonville, FL

Home | Current Version | Previous Version | Text Only | Print | Product List | Glossary On
Versions: 1 2 3 4 5 6 7 8 9 10 11 12 13 14 15 16 17
000
FTUS42 KJAX 052120 AAB
TAFGNV
TAF AMD
KGNV 052120Z 0521/0618 29010KT P6SM VCTS SCT035CB BKN080
      TEMPO 0521/0522 VRB15G20KT 6SM -TSRA BKN035CB
     FM060100 19004KT P6SM SCT100 BKN200
     FM061400 25005KT P6SM SCT030 BKN250=

USA.gov is the U.S. government's official web portal to all federal, state and local government web resources and services.